createdAt,value
2022-11-09T00:01:40.903Z,2.57
2022-11-09T00:04:09.318Z,2.47
2022-11-09T00:06:37.733Z,2.53
2022-11-09T00:09:08.370Z,2.47
2022-11-09T00:11:38.021Z,2.40
2022-11-09T00:14:08.034Z,2.43
2022-11-09T00:16:36.597Z,2.80
2022-11-09T00:19:04.939Z,3.03
2022-11-09T00:21:33.300Z,2.63
2022-11-09T00:24:01.721Z,2.10
2022-11-09T00:26:30.037Z,2.70
2022-11-09T00:28:58.619Z,2.47
2022-11-09T00:31:28.812Z,2.70
2022-11-09T00:33:59.953Z,2.57
2022-11-09T00:36:29.055Z,2.43
2022-11-09T00:38:58.046Z,2.70
2022-11-09T00:41:26.923Z,2.33
2022-11-09T00:43:56.897Z,2.47
2022-11-09T00:46:25.813Z,2.30
2022-11-09T00:48:57.106Z,2.60
2022-11-09T00:51:25.556Z,2.57
2022-11-09T00:53:54.867Z,2.20
2022-11-09T00:56:24.594Z,2.30
2022-11-09T00:58:54.769Z,2.23
2022-11-09T01:01:23.133Z,2.80
2022-11-09T01:03:51.545Z,2.47
2022-11-09T01:06:22.531Z,2.20
2022-11-09T01:08:51.395Z,2.30
2022-11-09T01:11:20.429Z,2.70
2022-11-09T01:13:48.697Z,2.43
2022-11-09T01:16:17.857Z,2.57
2022-11-09T01:18:46.296Z,2.43
2022-11-09T01:21:15.519Z,2.40
2022-11-09T01:23:45.684Z,2.67
2022-11-09T01:26:14.926Z,2.40
2022-11-09T01:28:44.662Z,2.40
2022-11-09T01:31:15.533Z,2.10
2022-11-09T01:33:46.310Z,2.40
2022-11-09T01:36:16.176Z,2.33
2022-11-09T01:38:46.049Z,2.30
2022-11-09T01:41:15.594Z,2.47
2022-11-09T01:43:45.990Z,2.43
2022-11-09T01:46:16.757Z,2.33
2022-11-09T01:48:49.378Z,2.60
2022-11-09T01:51:25.199Z,2.50
2022-11-09T01:53:58.099Z,2.37
2022-11-09T01:56:26.491Z,2.80
2022-11-09T01:58:56.339Z,2.43
2022-11-09T02:01:25.108Z,2.40
2022-11-09T02:03:55.479Z,2.30
2022-11-09T02:06:28.304Z,2.43
2022-11-09T02:08:59.779Z,2.50
2022-11-09T02:11:29.353Z,2.50
2022-11-09T02:14:02.491Z,2.53
2022-11-09T02:16:30.816Z,2.40
2022-11-09T02:19:00.939Z,2.63
2022-11-09T02:21:31.274Z,2.30
2022-11-09T02:24:00.199Z,2.33
2022-11-09T02:26:31.312Z,2.50
2022-11-09T02:29:00.024Z,2.40
2022-11-09T02:31:32.487Z,2.40
2022-11-09T02:34:03.667Z,2.97
2022-11-09T02:36:35.074Z,2.40
2022-11-09T02:39:07.505Z,2.70
2022-11-09T02:41:35.997Z,2.97
2022-11-09T02:44:04.552Z,2.50
2022-11-09T02:46:35.259Z,2.80
2022-11-09T02:49:04.349Z,2.40
2022-11-09T02:51:34.146Z,2.57
2022-11-09T02:54:02.639Z,2.47
2022-11-09T02:56:31.338Z,2.13
2022-11-09T02:59:01.227Z,2.70
2022-11-09T03:01:29.873Z,2.20
2022-11-09T03:03:58.810Z,2.63
2022-11-09T03:06:34.771Z,2.30
2022-11-09T03:09:10.032Z,2.57
2022-11-09T03:11:38.648Z,2.40
2022-11-09T03:14:09.886Z,2.70
2022-11-09T03:16:40.479Z,2.60
2022-11-09T03:19:09.053Z,2.70
2022-11-09T03:21:38.038Z,2.77
2022-11-09T03:24:08.909Z,2.50
2022-11-09T03:26:39.774Z,2.57
2022-11-09T03:29:08.719Z,2.90
2022-11-09T03:31:37.495Z,2.83
2022-11-09T03:34:09.554Z,3.00
2022-11-09T03:36:38.208Z,2.67
2022-11-09T03:39:08.428Z,2.97
2022-11-09T03:41:36.942Z,2.93
2022-11-09T03:44:05.569Z,2.73
2022-11-09T03:46:33.932Z,2.53
2022-11-09T03:49:02.339Z,2.73
2022-11-09T03:51:30.750Z,2.60
2022-11-09T03:53:59.408Z,2.87
2022-11-09T03:56:29.268Z,2.60
2022-11-09T03:58:57.606Z,2.87
2022-11-09T04:01:26.201Z,2.67
2022-11-09T04:03:54.676Z,2.20
2022-11-09T04:06:23.039Z,2.60
2022-11-09T04:08:51.850Z,2.93
2022-11-09T04:11:20.836Z,2.53
2022-11-09T04:13:50.513Z,2.80
2022-11-09T04:16:18.851Z,2.60
2022-11-09T04:18:50.121Z,2.80
2022-11-09T04:21:23.718Z,2.10
2022-11-09T04:23:52.566Z,2.27
2022-11-09T04:26:20.914Z,1.97
2022-11-09T04:28:50.630Z,2.37
2022-11-09T04:31:18.989Z,2.20
2022-11-09T04:33:51.061Z,2.53
2022-11-09T04:36:19.908Z,2.97
2022-11-09T04:38:48.358Z,2.70
2022-11-09T04:41:16.618Z,2.80
2022-11-09T04:43:44.958Z,3.27
2022-11-09T04:46:16.893Z,3.30
2022-11-09T04:48:45.702Z,2.90
2022-11-09T04:51:14.052Z,3.10
2022-11-09T04:53:42.402Z,3.30
2022-11-09T04:56:11.312Z,3.13
2022-11-09T04:58:39.712Z,2.77
2022-11-09T05:01:10.753Z,3.03
2022-11-09T05:03:40.618Z,2.97
2022-11-09T05:06:22.837Z,2.73
2022-11-09T05:08:51.189Z,2.77
2022-11-09T05:11:19.583Z,2.93
2022-11-09T05:13:48.298Z,2.43
2022-11-09T05:16:17.667Z,2.90
2022-11-09T05:18:47.487Z,3.07
2022-11-09T05:21:16.003Z,3.17
2022-11-09T05:24:02.565Z,3.30
2022-11-09T05:26:31.799Z,2.80
2022-11-09T05:29:00.393Z,2.90
2022-11-09T05:31:28.710Z,3.37
2022-11-09T05:33:59.470Z,3.13
2022-11-09T05:36:28.062Z,2.77
2022-11-09T05:38:56.418Z,2.83
2022-11-09T05:41:25.119Z,2.93
2022-11-09T05:43:53.598Z,2.60
2022-11-09T05:46:22.348Z,2.73
2022-11-09T05:48:50.569Z,3.00
2022-11-09T05:51:20.280Z,3.43
2022-11-09T05:53:48.675Z,2.90
2022-11-09T05:56:17.297Z,2.70
2022-11-09T05:58:45.845Z,3.07
2022-11-09T06:01:14.925Z,2.40
2022-11-09T06:03:44.451Z,3.07
2022-11-09T06:06:13.577Z,3.10
2022-11-09T06:08:43.706Z,2.33
2022-11-09T06:11:18.221Z,2.90
2022-11-09T06:13:46.767Z,3.23
2022-11-09T06:16:15.262Z,3.37
2022-11-09T06:18:43.561Z,2.60
2022-11-09T06:21:12.352Z,2.80
2022-11-09T06:23:40.810Z,2.30
2022-11-09T06:26:11.144Z,2.70
2022-11-09T06:28:39.693Z,3.00
2022-11-09T06:31:10.046Z,3.00
2022-11-09T06:33:38.565Z,3.20
2022-11-09T06:36:08.123Z,3.00
2022-11-09T06:38:36.412Z,3.10
2022-11-09T06:41:04.716Z,3.33
2022-11-09T06:43:34.546Z,3.10
2022-11-09T06:46:04.413Z,3.13
2022-11-09T06:48:33.156Z,3.30
2022-11-09T06:51:02.419Z,3.10
2022-11-09T06:53:31.374Z,2.97
2022-11-09T06:56:00.122Z,3.00
2022-11-09T06:58:28.622Z,3.33
2022-11-09T07:00:58.862Z,3.20
2022-11-09T07:03:27.210Z,3.40
2022-11-09T07:05:55.575Z,3.07
2022-11-09T07:08:23.952Z,3.50
2022-11-09T07:10:52.233Z,3.10
2022-11-09T07:13:20.788Z,3.40
2022-11-09T07:15:54.089Z,3.70
2022-11-09T07:18:24.058Z,3.83
2022-11-09T07:20:52.381Z,3.20
2022-11-09T07:23:20.944Z,4.00
2022-11-09T07:25:49.417Z,3.50
2022-11-09T07:28:17.828Z,4.13
2022-11-09T07:30:46.400Z,3.80
2022-11-09T07:33:15.862Z,3.77
2022-11-09T07:35:45.582Z,4.00
2022-11-09T07:38:14.108Z,3.80
2022-11-09T07:40:42.508Z,3.90
2022-11-09T07:43:11.840Z,3.80
2022-11-09T07:45:41.620Z,3.60
2022-11-09T07:48:10.956Z,3.80
2022-11-09T07:50:40.099Z,4.00
2022-11-09T07:53:09.874Z,4.30
2022-11-09T07:55:38.375Z,3.60
2022-11-09T07:58:08.757Z,4.37
2022-11-09T08:00:38.122Z,4.03
2022-11-09T08:03:06.515Z,4.17
2022-11-09T08:05:34.851Z,4.40
2022-11-09T08:08:03.888Z,4.20
2022-11-09T08:10:33.960Z,4.30
2022-11-09T08:13:04.276Z,4.47
2022-11-09T08:15:32.697Z,4.13
2022-11-09T08:18:01.328Z,4.40
2022-11-09T08:20:29.711Z,4.87
2022-11-09T08:23:03.270Z,4.73
2022-11-09T08:25:34.574Z,4.67
2022-11-09T08:28:03.537Z,4.43
2022-11-09T08:30:32.322Z,4.30
2022-11-09T08:33:01.120Z,4.87
2022-11-09T08:35:29.522Z,4.80
2022-11-09T08:37:58.243Z,4.23
2022-11-09T08:40:27.090Z,4.27
2022-11-09T08:42:56.896Z,4.33
2022-11-09T08:45:25.287Z,3.97
2022-11-09T08:47:58.872Z,4.30
2022-11-09T08:50:29.063Z,5.13
2022-11-09T08:53:00.563Z,4.20
2022-11-09T08:55:29.505Z,4.43
2022-11-09T08:58:00.585Z,4.43
2022-11-09T09:00:29.032Z,4.40
2022-11-09T09:02:57.505Z,4.20
2022-11-09T09:05:27.853Z,4.63
2022-11-09T09:07:56.641Z,4.20
2022-11-09T09:10:25.013Z,4.40
2022-11-09T09:12:53.386Z,4.30
2022-11-09T09:15:23.571Z,4.03
2022-11-09T09:17:51.980Z,3.30
2022-11-09T09:20:21.908Z,2.83
2022-11-09T09:22:50.534Z,2.40
2022-11-09T09:25:19.122Z,2.10
2022-11-09T09:27:47.670Z,2.53
2022-11-09T09:30:16.151Z,2.10
2022-11-09T09:32:45.975Z,3.33
2022-11-09T09:35:15.684Z,2.40
2022-11-09T09:37:44.546Z,2.97
2022-11-09T09:40:22.189Z,2.03
2022-11-09T09:42:52.930Z,2.43
2022-11-09T09:45:22.500Z,2.53
2022-11-09T09:47:54.246Z,2.23
2022-11-09T09:50:24.352Z,2.30
2022-11-09T09:53:22.274Z,2.43
2022-11-09T09:55:46.103Z,2.40
2022-11-09T09:58:15.386Z,2.10
2022-11-09T10:00:43.757Z,2.10
2022-11-09T10:03:19.069Z,1.80
2022-11-09T10:05:52.430Z,2.10
2022-11-09T10:08:24.835Z,1.90
2022-11-09T10:11:00.249Z,1.93
2022-11-09T10:13:43.640Z,2.00
2022-11-09T10:16:15.588Z,1.70
2022-11-09T10:18:56.780Z,1.90
2022-11-09T10:21:33.505Z,2.00
2022-11-09T10:24:09.975Z,1.80
2022-11-09T10:26:41.339Z,2.00
2022-11-09T10:29:20.746Z,2.10
2022-11-09T10:31:50.296Z,2.20
2022-11-09T10:34:21.386Z,2.30
2022-11-09T10:36:55.325Z,2.00
2022-11-09T10:39:25.542Z,2.17
2022-11-09T10:42:12.888Z,2.00
2022-11-09T10:44:59.992Z,2.50
2022-11-09T10:47:49.041Z,2.47
2022-11-09T10:50:41.832Z,2.23
2022-11-09T10:53:29.181Z,2.03
2022-11-09T10:56:20.782Z,1.97
2022-11-09T10:59:40.698Z,2.10
2022-11-09T11:02:44.353Z,2.00
2022-11-09T11:05:36.708Z,1.90
2022-11-09T11:08:27.819Z,2.00
2022-11-09T11:11:35.676Z,2.00
2022-11-09T11:14:27.095Z,1.50
2022-11-09T11:17:23.729Z,1.80
2022-11-09T11:20:31.806Z,1.97
2022-11-09T11:23:19.815Z,2.20
2022-11-09T11:26:26.468Z,1.93
2022-11-09T11:29:30.189Z,1.70
2022-11-09T11:32:18.164Z,1.90
2022-11-09T11:35:06.170Z,2.50
2022-11-09T11:37:59.697Z,2.83
2022-11-09T11:40:52.030Z,1.80
2022-11-09T11:43:46.494Z,1.80
2022-11-09T11:46:36.665Z,1.70
2022-11-09T11:49:57.447Z,2.07
2022-11-09T11:52:53.019Z,3.20
2022-11-09T11:55:54.253Z,2.53
2022-11-09T11:58:49.990Z,2.40
2022-11-09T12:01:43.990Z,2.20
2022-11-09T12:04:39.489Z,2.83
2022-11-09T12:07:31.482Z,1.87
2022-11-09T12:10:28.953Z,1.93
2022-11-09T12:13:24.848Z,1.80
2022-11-09T12:16:17.209Z,2.30
2022-11-09T12:19:35.076Z,2.00
2022-11-09T12:22:25.623Z,2.00
2022-11-09T12:25:15.848Z,2.10
2022-11-09T12:28:13.842Z,2.03
2022-11-09T12:31:08.992Z,2.63
2022-11-09T12:34:00.574Z,2.00
2022-11-09T12:36:50.732Z,2.40
2022-11-09T12:39:39.232Z,2.20
2022-11-09T12:42:28.578Z,2.20
2022-11-09T12:45:19.205Z,2.20
2022-11-09T12:48:12.595Z,2.20
2022-11-09T12:51:01.276Z,2.10
2022-11-09T12:53:48.976Z,2.10
2022-11-09T12:56:38.950Z,2.30
2022-11-09T12:59:39.533Z,2.40
2022-11-09T13:02:30.559Z,1.80
2022-11-09T13:05:31.851Z,2.00
2022-11-09T13:08:29.618Z,1.90
2022-11-09T13:11:23.644Z,1.67
2022-11-09T13:14:34.995Z,1.80
2022-11-09T13:17:57.951Z,1.67
2022-11-09T13:20:55.481Z,1.70
2022-11-09T13:24:03.888Z,2.40
2022-11-09T13:27:00.853Z,2.40
2022-11-09T13:29:55.310Z,2.33
2022-11-09T13:33:02.889Z,1.87
2022-11-09T13:36:18.364Z,1.83
2022-11-09T13:39:34.649Z,2.00
2022-11-09T13:42:29.810Z,1.80
2022-11-09T13:45:31.080Z,1.80
2022-11-09T13:48:33.110Z,1.83
2022-11-09T13:51:22.449Z,1.50
2022-11-09T13:54:29.246Z,1.50
2022-11-09T13:57:17.967Z,1.70
2022-11-09T14:00:07.276Z,1.70
2022-11-09T14:02:55.377Z,1.60
2022-11-09T14:05:42.478Z,1.57
2022-11-09T14:08:30.445Z,1.80
2022-11-09T14:11:34.530Z,1.70
2022-11-09T14:14:51.136Z,1.67
2022-11-09T14:17:41.962Z,1.67
2022-11-09T14:20:30.702Z,1.90
2022-11-09T14:23:18.420Z,1.90
2022-11-09T14:26:08.992Z,1.90
2022-11-09T14:28:55.467Z,2.20
2022-11-09T14:31:45.922Z,1.80
2022-11-09T14:34:32.789Z,1.80
2022-11-09T14:37:20.160Z,1.83
2022-11-09T14:40:07.936Z,1.80
2022-11-09T14:42:56.689Z,2.13
2022-11-09T14:45:51.656Z,1.63
2022-11-09T14:48:44.860Z,1.80
2022-11-09T14:51:33.577Z,2.30
2022-11-09T14:54:22.339Z,1.83
2022-11-09T14:57:11.089Z,2.00
2022-11-09T14:59:59.037Z,1.80
2022-11-09T15:02:47.467Z,1.73
2022-11-09T15:05:40.130Z,2.40
2022-11-09T15:08:29.101Z,1.90
2022-11-09T15:11:15.717Z,1.90
2022-11-09T15:14:14.637Z,1.90
2022-11-09T15:17:05.614Z,1.80
2022-11-09T15:19:54.241Z,2.00
2022-11-09T15:22:50.310Z,1.60
2022-11-09T15:25:37.947Z,1.70
2022-11-09T15:28:25.953Z,1.87
2022-11-09T15:31:19.494Z,1.90
2022-11-09T15:34:20.221Z,1.63
2022-11-09T15:37:19.511Z,1.87
2022-11-09T15:40:13.983Z,1.67
2022-11-09T15:43:00.852Z,2.13
2022-11-09T15:45:50.370Z,1.87
2022-11-09T15:48:37.990Z,1.87
2022-11-09T15:51:26.508Z,1.70
2022-11-09T15:54:13.704Z,1.70
2022-11-09T15:57:03.587Z,1.83
2022-11-09T15:59:51.367Z,1.97
2022-11-09T16:02:38.373Z,1.70
2022-11-09T16:05:27.909Z,1.80
2022-11-09T16:08:14.982Z,1.83
2022-11-09T16:11:07.755Z,1.77
2022-11-09T16:13:57.498Z,1.60
2022-11-09T16:16:44.417Z,1.80
2022-11-09T16:19:31.537Z,1.80
2022-11-09T16:22:21.147Z,1.90
2022-11-09T16:25:08.698Z,1.83
2022-11-09T16:27:56.456Z,1.87
2022-11-09T16:30:47.724Z,2.17
2022-11-09T16:33:34.887Z,1.90
2022-11-09T16:36:23.018Z,1.70
2022-11-09T16:39:12.902Z,1.70
2022-11-09T16:42:03.398Z,2.20
2022-11-09T16:44:50.357Z,1.90
2022-11-09T16:47:44.451Z,1.80
2022-11-09T16:50:32.053Z,1.73
2022-11-09T16:53:25.570Z,1.83
2022-11-09T16:56:14.004Z,1.60
2022-11-09T16:59:01.155Z,1.90
2022-11-09T17:01:52.543Z,1.90
2022-11-09T17:04:47.141Z,2.00
2022-11-09T17:07:42.019Z,1.80
2022-11-09T17:10:29.367Z,3.70
2022-11-09T17:13:18.768Z,2.77
2022-11-09T17:16:08.982Z,2.50
2022-11-09T17:18:55.861Z,2.20
2022-11-09T17:21:44.643Z,1.87
2022-11-09T17:24:32.056Z,1.70
2022-11-09T17:27:19.164Z,1.90
2022-11-09T17:30:07.614Z,2.00
2022-11-09T17:32:54.721Z,2.23
2022-11-09T17:35:41.911Z,3.40
2022-11-09T17:38:30.032Z,3.17
2022-11-09T17:41:20.040Z,2.17
2022-11-09T17:44:07.027Z,3.00
2022-11-09T17:46:54.147Z,2.30
2022-11-09T17:49:44.119Z,1.90
2022-11-09T17:52:31.059Z,2.10
2022-11-09T17:55:19.748Z,2.20
2022-11-09T17:58:06.625Z,2.33
2022-11-09T18:00:53.548Z,2.10
2022-11-09T18:03:40.982Z,2.00
2022-11-09T18:06:34.318Z,2.20
2022-11-09T18:09:44.963Z,2.10
2022-11-09T18:12:34.122Z,2.33
2022-11-09T18:15:21.222Z,2.10
2022-11-09T18:18:08.169Z,2.73
2022-11-09T18:20:55.304Z,2.17
2022-11-09T18:23:42.697Z,2.27
2022-11-09T18:26:31.377Z,2.40
2022-11-09T18:29:23.767Z,2.50
2022-11-09T18:32:12.828Z,2.40
2022-11-09T18:34:59.714Z,2.03
2022-11-09T18:37:48.595Z,2.77
2022-11-09T18:40:35.465Z,2.40
2022-11-09T18:43:22.758Z,2.30
2022-11-09T18:46:12.081Z,2.47
2022-11-09T18:48:59.049Z,2.77
2022-11-09T18:51:45.955Z,3.17
2022-11-09T18:54:32.988Z,3.13
2022-11-09T18:57:21.631Z,2.60
2022-11-09T19:00:11.999Z,2.73
2022-11-09T19:03:14.216Z,2.83
2022-11-09T19:06:01.196Z,2.80
2022-11-09T19:09:05.977Z,3.10
2022-11-09T19:11:52.875Z,2.70
2022-11-09T19:14:41.823Z,2.90
2022-11-09T19:17:29.063Z,5.60
2022-11-09T19:20:18.463Z,3.30
2022-11-09T19:23:05.476Z,2.83
2022-11-09T19:25:53.009Z,2.70
2022-11-09T19:28:40.090Z,2.70
2022-11-09T19:31:27.221Z,2.50
2022-11-09T19:34:15.812Z,2.70
2022-11-09T19:37:04.305Z,3.33
2022-11-09T19:39:51.586Z,2.67
2022-11-09T19:42:38.521Z,2.93
2022-11-09T19:45:25.020Z,2.63
2022-11-09T19:48:18.626Z,2.70
2022-11-09T19:51:06.256Z,2.93
2022-11-09T19:53:56.196Z,2.87
2022-11-09T19:56:45.473Z,2.90
2022-11-09T19:59:40.521Z,3.77
2022-11-09T20:02:27.285Z,3.50
2022-11-09T20:05:14.658Z,3.27
2022-11-09T20:08:03.645Z,4.10
2022-11-09T20:10:52.422Z,3.17
2022-11-09T20:13:41.387Z,3.27
2022-11-09T20:16:28.315Z,3.77
2022-11-09T20:19:15.480Z,3.30
2022-11-09T20:22:02.453Z,3.97
2022-11-09T20:24:49.633Z,3.70
2022-11-09T20:27:37.556Z,3.07
2022-11-09T20:30:24.490Z,2.30
2022-11-09T20:33:11.029Z,2.40
2022-11-09T20:35:57.618Z,2.20
2022-11-09T20:38:44.087Z,2.10
2022-11-09T20:41:31.337Z,2.00
2022-11-09T20:44:19.299Z,2.13
2022-11-09T20:47:06.276Z,1.93
2022-11-09T20:49:53.412Z,2.10
2022-11-09T20:52:40.662Z,1.53
2022-11-09T20:55:27.197Z,1.90
2022-11-09T20:58:14.116Z,1.80
2022-11-09T21:01:04.108Z,3.13
2022-11-09T21:03:52.996Z,1.90
2022-11-09T21:06:40.076Z,1.67
2022-11-09T21:09:26.945Z,2.07
2022-11-09T21:12:22.580Z,1.83
2022-11-09T21:15:10.049Z,2.17
2022-11-09T21:17:58.285Z,2.30
2022-11-09T21:20:45.243Z,2.00
2022-11-09T21:23:50.071Z,2.17
2022-11-09T21:26:54.264Z,2.10
2022-11-09T21:29:53.088Z,2.00
2022-11-09T21:32:40.294Z,2.07
2022-11-09T21:35:28.046Z,1.57
2022-11-09T21:38:14.865Z,1.50
2022-11-09T21:41:21.902Z,1.53
2022-11-09T21:44:09.338Z,1.60
2022-11-09T21:46:56.503Z,1.50
2022-11-09T21:49:43.163Z,1.50
2022-11-09T21:52:31.390Z,1.40
2022-11-09T21:55:18.387Z,1.60
2022-11-09T21:58:05.680Z,1.30
2022-11-09T22:00:52.523Z,1.60
2022-11-09T22:03:39.274Z,1.63
2022-11-09T22:06:26.697Z,1.67
2022-11-09T22:09:18.648Z,1.67
2022-11-09T22:12:23.433Z,1.77
2022-11-09T22:15:28.424Z,1.70
2022-11-09T22:18:35.098Z,1.40
2022-11-09T22:21:21.191Z,1.77
2022-11-09T22:24:08.395Z,1.90
2022-11-09T22:26:56.830Z,1.90
2022-11-09T22:29:43.440Z,1.77
2022-11-09T22:32:30.502Z,2.10
2022-11-09T22:35:17.119Z,1.70
2022-11-09T22:38:03.854Z,1.67
2022-11-09T22:40:50.621Z,1.60
2022-11-09T22:43:41.243Z,1.80
2022-11-09T22:46:28.310Z,1.67
2022-11-09T22:49:14.957Z,2.03
2022-11-09T22:52:02.016Z,1.87
2022-11-09T22:54:49.153Z,1.73
2022-11-09T22:57:38.732Z,1.70
2022-11-09T23:00:26.680Z,2.00
2022-11-09T23:03:13.420Z,1.83
2022-11-09T23:06:03.200Z,2.30
2022-11-09T23:08:51.402Z,2.00
2022-11-09T23:11:38.024Z,2.40
2022-11-09T23:14:38.383Z,2.13
2022-11-09T23:17:44.125Z,2.60
2022-11-09T23:20:35.349Z,2.83
2022-11-09T23:23:23.005Z,2.40
2022-11-09T23:26:10.075Z,2.43
2022-11-09T23:28:57.130Z,2.87
2022-11-09T23:31:43.642Z,3.27
2022-11-09T23:34:32.179Z,2.83
2022-11-09T23:37:18.844Z,3.57
2022-11-09T23:40:06.902Z,3.27
2022-11-09T23:42:53.868Z,3.10
2022-11-09T23:45:41.541Z,3.43
2022-11-09T23:48:28.385Z,3.40
2022-11-09T23:51:18.528Z,3.10
2022-11-09T23:54:05.245Z,2.93
2022-11-09T23:56:51.998Z,3.10
2022-11-09T23:59:38.602Z,3.40
